Terminal Aerodrome Forecast
Issued by NWS

Home | Current Version | Previous Version | Text Only | Print | Product List | Glossary On
Versions: 1 2 3 4 5 6 7 8 9 10 11 12
870
FTUS44 KEPZ 251720
TAFTCS
TAF
KTCS 251720Z 2518/2618 18011KT P6SM SCT250
     FM252100 21018G28KT P6SM SCT200
     FM260200 28008KT P6SM FEW200=

USA.gov is the U.S. government's official web portal to all federal, state and local government web resources and services.